Paia, HI (96779)

3:55 PM HST on March 28, 2015 (GMT -1000)
Haiku, Maui Upper West Kuiaha Road | | Change Station
CLOSE
Current Station
Personal Weather Station
Location: Haiku-Pauwela, HI
Elevation: 837 ft
Nearby Weather Stations

Elev 837 ft 20.90 °N, 156.30 °W | Updated 44 seconds ago

Scattered Clouds
Scattered Clouds
74.6 °F
Feels Like 75 °F
N
8.0
Wind Variable Wind from ESE
Gusts 22.0 mph

Today
High -- | Low -- °F
--% Chance of Precip.
Yesterday
High -- | Low -- °F
Precip. -- in
6:22 AM 6:38 PM
Waxing Gibbous, 67% visible
Pressure 30.10 in
Visibility 10.0 miles
Clouds Few 4000 ft
Scattered Clouds 7000 ft
Heat Index 75 °F
Dew Point 69 °F
Humidity 83%
Rainfall 0.02 in
Snow Depth Not available.
UV 6 out of 12
Pollen Not available.
Air Quality Not available.
Flu Activity Not available.
METAR PHOG 290054Z 07009KT 10SM FEW040 SCT070 29/19 A3009 RMK AO2 SLP193 T02890194 $

More Conditions Fewer Conditions

Pressure 30.10 in
Visibility 10.0 miles
Clouds Few 4000 ft
Scattered Clouds 7000 ft
Heat Index 75 °F
Dew Point 69 °F
Humidity 83%
Rainfall 0.02 in
Snow Depth Not available.
UV 6 out of 12
Pollen Not available.
Air Quality Not available.
Flu Activity Not available.
METAR PHOG 290054Z 07009KT 10SM FEW040 SCT070 29/19 A3009 RMK AO2 SLP193 T02890194 $

More Conditions Fewer Conditions

10-Day Weather Forecast

Almanac

Astronomy

Mar. 28, 2015 Rise Set
Actual Time
Civil Twilight
Nautical Twilight
Astronomical Twilight
Moon
Length of Visible Light
Length of Day
Tomorrow will be .
, % of the Moon is Illuminated

Today's Extremes

State Highs State Lows

Community

WunderPhotos

Upload Photos

1,809,149 photos uploaded!

WunderBlogs® & News

Nearby

Air Quality

  Air Quality AQ Index Pollutant
Not available.

Snow Depth

Station Depth Elevation

Earthquake Activity

City Distance Mag. Time & Date
Minimum magnitude displayed is 2.5.

Coastal Water Temperatures

Place Temperature

Stations

Nearby Weather Stations

Station Location Temp. Windchill Dew Point Humidity Wind Precip. Elev Updated Type